createdAt,value
2022-07-30T00:01:37.054Z,100.00
2022-07-30T00:04:06.753Z,100.00
2022-07-30T00:06:38.001Z,100.00
2022-07-30T00:09:07.029Z,100.00
2022-07-30T00:11:36.023Z,100.00
2022-07-30T00:14:05.442Z,100.00
2022-07-30T00:16:34.562Z,100.00
2022-07-30T00:19:05.262Z,100.00
2022-07-30T00:21:39.107Z,100.00
2022-07-30T00:24:09.688Z,100.00
2022-07-30T00:26:38.691Z,100.00
2022-07-30T00:29:07.791Z,100.00
2022-07-30T00:31:36.696Z,100.00
2022-07-30T00:34:07.350Z,100.00
2022-07-30T00:36:36.399Z,100.00
2022-07-30T00:39:08.174Z,100.00
2022-07-30T00:41:53.541Z,100.00
2022-07-30T00:44:22.582Z,100.00
2022-07-30T00:46:52.133Z,100.00
2022-07-30T00:49:22.858Z,100.00
2022-07-30T00:51:52.607Z,100.00
2022-07-30T00:54:22.286Z,100.00
2022-07-30T00:56:51.550Z,100.00
2022-07-30T00:59:20.372Z,100.00
2022-07-30T01:01:49.350Z,100.00
2022-07-30T01:04:18.446Z,100.00
2022-07-30T01:06:48.829Z,100.00
2022-07-30T01:09:17.715Z,100.00
2022-07-30T01:11:47.000Z,100.00
2022-07-30T01:14:15.919Z,100.00
2022-07-30T01:16:45.038Z,100.00
2022-07-30T01:19:38.602Z,100.00
2022-07-30T01:22:17.045Z,100.00
2022-07-30T01:24:56.946Z,100.00
2022-07-30T01:27:29.960Z,100.00
2022-07-30T01:30:00.866Z,100.00
2022-07-30T01:32:32.543Z,100.00
2022-07-30T01:35:04.194Z,100.00
2022-07-30T01:37:34.907Z,100.00
2022-07-30T01:40:04.834Z,100.00
2022-07-30T01:42:39.802Z,100.00
2022-07-30T01:45:10.405Z,100.00
2022-07-30T01:47:41.044Z,100.00
2022-07-30T01:50:14.707Z,100.00
2022-07-30T01:52:45.835Z,100.00
2022-07-30T01:55:21.750Z,100.00
2022-07-30T01:57:56.803Z,100.00
2022-07-30T02:00:31.926Z,100.00
2022-07-30T02:03:00.892Z,100.00
2022-07-30T02:05:33.134Z,100.00
2022-07-30T02:08:06.063Z,100.00
2022-07-30T02:10:37.756Z,100.00
2022-07-30T02:13:14.048Z,100.00
2022-07-30T02:15:49.468Z,100.00
2022-07-30T02:18:24.586Z,100.00
2022-07-30T02:21:02.634Z,100.00
2022-07-30T02:23:40.610Z,100.00
2022-07-30T02:26:16.127Z,100.00
2022-07-30T02:28:50.732Z,100.00
2022-07-30T02:31:23.584Z,100.00
2022-07-30T02:33:57.603Z,100.00
2022-07-30T02:36:30.905Z,100.00
2022-07-30T02:39:00.921Z,100.00
2022-07-30T02:41:32.393Z,100.00
2022-07-30T02:44:04.169Z,100.00
2022-07-30T02:46:33.756Z,100.00
2022-07-30T02:49:39.662Z,100.00
2022-07-30T02:52:15.668Z,100.00
2022-07-30T02:54:46.637Z,100.00
2022-07-30T02:57:16.678Z,100.00
2022-07-30T02:59:49.135Z,100.00
2022-07-30T03:02:29.145Z,100.00
2022-07-30T03:05:00.251Z,100.00
2022-07-30T03:07:31.104Z,100.00
2022-07-30T03:10:01.254Z,100.00
2022-07-30T03:12:32.960Z,100.00
2022-07-30T03:15:03.802Z,100.00
2022-07-30T03:17:39.337Z,100.00
2022-07-30T03:20:11.673Z,100.00
2022-07-30T03:22:47.155Z,100.00
2022-07-30T03:25:18.111Z,100.00
2022-07-30T03:27:49.738Z,100.00
2022-07-30T03:30:20.083Z,100.00
2022-07-30T03:32:50.104Z,100.00
2022-07-30T03:35:20.351Z,100.00
2022-07-30T03:37:52.392Z,100.00
2022-07-30T03:40:22.616Z,100.00
2022-07-30T03:42:52.430Z,100.00
2022-07-30T03:45:26.553Z,100.00
2022-07-30T03:48:01.370Z,100.00
2022-07-30T03:50:36.540Z,100.00
2022-07-30T03:53:06.875Z,100.00
2022-07-30T03:55:43.481Z,100.00
2022-07-30T03:58:35.762Z,100.00
2022-07-30T04:01:09.037Z,100.00
2022-07-30T04:03:38.924Z,100.00
2022-07-30T04:06:08.907Z,100.00
2022-07-30T04:08:37.726Z,100.00
2022-07-30T04:11:06.639Z,100.00
2022-07-30T04:13:47.668Z,100.00
2022-07-30T04:16:39.189Z,100.00
2022-07-30T04:19:16.683Z,100.00
2022-07-30T04:21:48.262Z,100.00
2022-07-30T04:24:18.985Z,100.00
2022-07-30T04:26:49.331Z,100.00
2022-07-30T04:29:24.308Z,100.00
2022-07-30T04:31:56.277Z,100.00
2022-07-30T04:34:49.237Z,100.00
2022-07-30T04:37:25.087Z,100.00
2022-07-30T04:39:56.199Z,100.00
2022-07-30T04:42:30.168Z,100.00
2022-07-30T04:45:06.910Z,100.00
2022-07-30T04:47:55.193Z,100.00
2022-07-30T04:50:47.218Z,100.00
2022-07-30T04:53:20.818Z,100.00
2022-07-30T04:55:57.323Z,100.00
2022-07-30T04:58:29.956Z,100.00
2022-07-30T05:01:01.140Z,100.00
2022-07-30T05:03:36.729Z,100.00
2022-07-30T05:06:07.626Z,100.00
2022-07-30T05:08:41.020Z,100.00
2022-07-30T05:11:12.934Z,100.00
2022-07-30T05:13:43.106Z,100.00
2022-07-30T05:16:16.841Z,100.00
2022-07-30T05:18:47.845Z,100.00
2022-07-30T05:21:17.519Z,100.00
2022-07-30T05:23:50.268Z,100.00
2022-07-30T05:26:34.848Z,100.00
2022-07-30T05:29:07.007Z,100.00
2022-07-30T05:31:52.468Z,100.00
2022-07-30T05:34:24.255Z,100.00
2022-07-30T05:36:54.507Z,100.00
2022-07-30T05:39:24.631Z,100.00
2022-07-30T05:42:29.398Z,100.00
2022-07-30T05:45:01.179Z,100.00
2022-07-30T05:47:30.140Z,100.00
2022-07-30T05:50:05.227Z,100.00
2022-07-30T05:52:35.076Z,100.00
2022-07-30T05:55:15.495Z,100.00
2022-07-30T05:57:55.236Z,100.00
2022-07-30T06:00:24.588Z,100.00
2022-07-30T06:02:56.709Z,100.00
2022-07-30T06:05:29.659Z,100.00
2022-07-30T06:08:03.053Z,100.00
2022-07-30T06:10:33.869Z,100.00
2022-07-30T06:13:03.279Z,100.00
2022-07-30T06:15:32.471Z,100.00
2022-07-30T06:18:02.654Z,100.00
2022-07-30T06:20:54.427Z,100.00
2022-07-30T06:23:25.977Z,100.00
2022-07-30T06:26:24.417Z,100.00
2022-07-30T06:28:53.362Z,100.00
2022-07-30T06:31:29.727Z,100.00
2022-07-30T06:33:59.093Z,100.00
2022-07-30T06:36:33.184Z,100.00
2022-07-30T06:39:12.886Z,100.00
2022-07-30T06:42:17.299Z,100.00
2022-07-30T06:45:05.408Z,100.00
2022-07-30T06:47:58.786Z,100.00
2022-07-30T06:50:29.047Z,100.00
2022-07-30T06:52:59.409Z,100.00
2022-07-30T06:55:39.094Z,100.00
2022-07-30T06:58:08.554Z,100.00
2022-07-30T07:00:56.022Z,97.33
2022-07-30T07:03:39.957Z,100.00
2022-07-30T07:06:10.471Z,100.00
2022-07-30T07:08:42.817Z,100.00
2022-07-30T07:11:15.557Z,100.00
2022-07-30T07:13:50.770Z,100.00
2022-07-30T07:16:27.964Z,100.00
2022-07-30T07:18:59.128Z,98.42
2022-07-30T07:21:27.925Z,95.38
2022-07-30T07:24:00.489Z,95.07
2022-07-30T07:26:55.029Z,93.33
2022-07-30T07:29:24.241Z,92.58
2022-07-30T07:32:05.419Z,90.90
2022-07-30T07:34:40.130Z,94.58
2022-07-30T07:37:13.166Z,91.88
2022-07-30T07:39:45.235Z,89.55
2022-07-30T07:42:14.324Z,84.59
2022-07-30T07:44:48.083Z,85.96
2022-07-30T07:47:17.782Z,82.32
2022-07-30T07:49:58.971Z,77.70
2022-07-30T07:52:28.633Z,75.12
2022-07-30T07:54:59.381Z,74.42
2022-07-30T07:57:30.362Z,68.30
2022-07-30T08:00:00.891Z,70.96
2022-07-30T08:02:32.887Z,69.65
2022-07-30T08:05:10.919Z,69.47
2022-07-30T08:07:46.663Z,70.05
2022-07-30T08:10:35.529Z,66.82
2022-07-30T08:13:52.957Z,62.71
2022-07-30T08:16:35.269Z,65.02
2022-07-30T08:19:23.148Z,60.74
2022-07-30T08:22:03.520Z,58.67
2022-07-30T08:24:34.287Z,63.65
2022-07-30T08:27:05.685Z,65.48
2022-07-30T08:29:35.142Z,68.60
2022-07-30T08:32:04.812Z,65.66
2022-07-30T08:34:36.809Z,63.23
2022-07-30T08:37:07.685Z,64.05
2022-07-30T08:39:37.764Z,61.28
2022-07-30T08:42:08.369Z,57.70
2022-07-30T08:44:39.029Z,57.33
2022-07-30T08:47:11.047Z,55.68
2022-07-30T08:50:04.677Z,53.01
2022-07-30T08:52:38.341Z,55.53
2022-07-30T08:55:10.059Z,55.61
2022-07-30T08:57:44.654Z,53.44
2022-07-30T09:00:15.622Z,51.41
2022-07-30T09:02:45.226Z,49.68
2022-07-30T09:05:15.162Z,48.71
2022-07-30T09:07:44.161Z,48.60
2022-07-30T09:10:19.955Z,48.68
2022-07-30T09:12:50.391Z,48.95
2022-07-30T09:15:22.513Z,47.80
2022-07-30T09:17:56.087Z,45.02
2022-07-30T09:20:31.470Z,45.20
2022-07-30T09:23:06.634Z,42.28
2022-07-30T09:25:52.246Z,43.22
2022-07-30T09:28:41.334Z,42.34
2022-07-30T09:31:16.302Z,40.71
2022-07-30T09:34:03.699Z,39.77
2022-07-30T09:36:51.213Z,39.71
2022-07-30T09:39:40.703Z,39.12
2022-07-30T09:42:26.076Z,40.79
2022-07-30T09:45:09.464Z,40.14
2022-07-30T09:49:08.074Z,38.05
2022-07-30T09:51:56.359Z,38.40
2022-07-30T09:58:50.258Z,39.81
2022-07-30T10:01:49.886Z,38.72
2022-07-30T10:04:34.884Z,37.74
2022-07-30T10:07:25.196Z,37.26
2022-07-30T10:10:01.734Z,37.18
2022-07-30T10:12:38.942Z,36.72
2022-07-30T10:15:13.559Z,36.47
2022-07-30T10:17:46.942Z,37.12
2022-07-30T10:20:28.108Z,37.68
2022-07-30T10:23:17.100Z,37.67
2022-07-30T10:26:06.025Z,35.38
2022-07-30T10:28:55.420Z,33.13
2022-07-30T10:31:48.663Z,30.41
2022-07-30T10:34:23.745Z,31.42
2022-07-30T10:37:01.731Z,35.49
2022-07-30T10:39:37.318Z,36.51
2022-07-30T10:42:29.848Z,33.08
2022-07-30T10:45:24.303Z,31.67
2022-07-30T10:47:56.393Z,29.48
2022-07-30T10:50:29.131Z,30.55
2022-07-30T10:52:59.273Z,31.80
2022-07-30T10:55:38.913Z,31.53
2022-07-30T10:58:10.242Z,30.36
2022-07-30T11:01:00.349Z,27.10
2022-07-30T11:03:38.786Z,25.79
2022-07-30T11:06:29.958Z,32.24
2022-07-30T11:09:01.197Z,34.14
2022-07-30T11:12:02.350Z,32.64
2022-07-30T11:14:57.363Z,24.20
2022-07-30T11:17:26.914Z,22.85
2022-07-30T11:20:11.674Z,25.29
2022-07-30T11:22:44.883Z,27.73
2022-07-30T11:25:54.699Z,26.65
2022-07-30T11:28:39.796Z,32.72
2022-07-30T11:31:56.313Z,31.98
2022-07-30T11:34:31.025Z,24.29
2022-07-30T11:37:21.802Z,22.11
2022-07-30T11:40:11.358Z,20.99
2022-07-30T11:42:42.744Z,21.33
2022-07-30T11:45:29.772Z,23.13
2022-07-30T11:48:01.358Z,22.46
2022-07-30T11:50:33.294Z,20.39
2022-07-30T11:53:04.524Z,21.39
2022-07-30T11:55:36.605Z,23.30
2022-07-30T11:58:07.517Z,22.24
2022-07-30T12:00:39.807Z,20.21
2022-07-30T12:03:11.706Z,20.35
2022-07-30T12:05:42.008Z,20.27
2022-07-30T12:08:35.581Z,20.80
2022-07-30T12:11:05.980Z,18.67
2022-07-30T12:13:45.713Z,21.18
2022-07-30T12:16:18.540Z,25.14
2022-07-30T12:18:48.433Z,28.17
2022-07-30T12:21:17.879Z,21.99
2022-07-30T12:23:55.677Z,21.83
2022-07-30T12:26:27.459Z,22.85
2022-07-30T12:28:59.601Z,20.89
2022-07-30T12:31:29.358Z,18.96
2022-07-30T12:34:00.450Z,19.57
2022-07-30T12:36:32.095Z,19.17
2022-07-30T12:39:02.376Z,23.26
2022-07-30T12:41:46.790Z,20.50
2022-07-30T12:44:37.851Z,21.77
2022-07-30T12:47:08.531Z,21.35
2022-07-30T12:49:48.835Z,18.67
2022-07-30T12:52:28.177Z,18.66
2022-07-30T12:55:01.348Z,19.72
2022-07-30T12:58:00.784Z,18.81
2022-07-30T13:00:47.984Z,18.32
2022-07-30T13:03:21.922Z,18.19
2022-07-30T13:05:55.275Z,22.12
2022-07-30T13:08:50.123Z,25.42
2022-07-30T13:11:24.781Z,27.66
2022-07-30T13:13:56.493Z,28.09
2022-07-30T13:16:25.625Z,27.51
2022-07-30T13:18:54.655Z,28.16
2022-07-30T13:21:24.445Z,28.53
2022-07-30T13:23:53.577Z,26.54
2022-07-30T13:26:22.503Z,21.79
2022-07-30T13:28:51.615Z,21.48
2022-07-30T13:31:23.060Z,21.16
2022-07-30T13:33:52.299Z,23.83
2022-07-30T13:36:21.530Z,21.55
2022-07-30T13:38:52.272Z,20.47
2022-07-30T13:41:21.599Z,18.21
2022-07-30T13:43:50.798Z,17.68
2022-07-30T13:46:22.601Z,18.15
2022-07-30T13:48:51.938Z,18.46
2022-07-30T13:51:20.993Z,18.24
2022-07-30T13:53:50.024Z,19.24
2022-07-30T13:56:19.601Z,18.48
2022-07-30T13:58:51.769Z,18.44
2022-07-30T14:01:22.109Z,18.98
2022-07-30T14:03:51.224Z,20.11
2022-07-30T14:06:20.450Z,18.30
2022-07-30T14:08:49.551Z,18.43
2022-07-30T14:11:18.950Z,18.96
2022-07-30T14:13:48.351Z,19.23
2022-07-30T14:16:43.667Z,19.48
2022-07-30T14:19:09.423Z,18.80
2022-07-30T14:21:53.063Z,19.59
2022-07-30T14:24:22.355Z,19.03
2022-07-30T14:26:57.406Z,18.95
2022-07-30T14:29:27.265Z,18.80
2022-07-30T14:31:57.067Z,19.91
2022-07-30T14:34:27.546Z,19.52
2022-07-30T14:36:56.451Z,20.52
2022-07-30T14:39:26.195Z,20.46
2022-07-30T14:41:56.254Z,20.01
2022-07-30T14:44:25.452Z,21.29
2022-07-30T14:46:54.677Z,21.83
2022-07-30T14:49:24.115Z,21.12
2022-07-30T14:51:54.853Z,22.73
2022-07-30T14:54:28.349Z,21.11
2022-07-30T14:56:58.595Z,20.64
2022-07-30T14:59:28.793Z,22.77
2022-07-30T15:01:58.174Z,26.68
2022-07-30T15:04:27.119Z,25.61
2022-07-30T15:06:57.409Z,26.30
2022-07-30T15:09:26.349Z,23.59
2022-07-30T15:12:10.987Z,22.63
2022-07-30T15:14:41.854Z,22.35
2022-07-30T15:17:14.098Z,22.56
2022-07-30T15:19:49.462Z,22.47
2022-07-30T15:22:21.208Z,22.80
2022-07-30T15:24:50.280Z,23.36
2022-07-30T15:27:22.397Z,22.55
2022-07-30T15:29:56.697Z,24.31
2022-07-30T15:32:25.844Z,25.84
2022-07-30T15:34:55.319Z,24.24
2022-07-30T15:37:25.999Z,24.04
2022-07-30T15:39:55.076Z,23.55
2022-07-30T15:42:27.491Z,24.00
2022-07-30T15:45:16.217Z,25.13
2022-07-30T15:47:48.808Z,26.29
2022-07-30T15:50:20.746Z,29.34
2022-07-30T15:52:51.370Z,31.62
2022-07-30T15:55:20.370Z,33.09
2022-07-30T15:57:50.337Z,33.81
2022-07-30T16:00:19.532Z,35.07
2022-07-30T16:02:48.790Z,36.07
2022-07-30T16:05:17.775Z,37.79
2022-07-30T16:07:46.896Z,37.76
2022-07-30T16:10:17.233Z,38.72
2022-07-30T16:12:46.317Z,39.94
2022-07-30T16:15:16.326Z,41.11
2022-07-30T16:17:45.477Z,42.37
2022-07-30T16:20:16.897Z,42.81
2022-07-30T16:22:46.018Z,46.16
2022-07-30T16:25:17.033Z,45.51
2022-07-30T16:27:45.953Z,47.62
2022-07-30T16:30:15.040Z,50.07
2022-07-30T16:32:47.088Z,50.63
2022-07-30T16:35:16.202Z,49.68
2022-07-30T16:37:45.247Z,51.40
2022-07-30T16:40:14.673Z,52.30
2022-07-30T16:42:46.698Z,52.31
2022-07-30T16:45:17.642Z,53.99
2022-07-30T16:47:46.527Z,55.78
2022-07-30T16:50:15.818Z,56.60
2022-07-30T16:52:44.781Z,57.54
2022-07-30T16:55:13.933Z,60.12
2022-07-30T16:57:44.252Z,62.28
2022-07-30T17:00:14.874Z,63.51
2022-07-30T17:02:43.702Z,63.20
2022-07-30T17:05:13.922Z,62.86
2022-07-30T17:07:43.644Z,63.15
2022-07-30T17:10:13.105Z,65.91
2022-07-30T17:12:50.919Z,67.71
2022-07-30T17:15:20.342Z,68.19
2022-07-30T17:18:01.389Z,69.52
2022-07-30T17:20:30.365Z,70.80
2022-07-30T17:22:59.619Z,70.16
2022-07-30T17:25:28.838Z,70.46
2022-07-30T17:28:00.356Z,72.39
2022-07-30T17:30:30.595Z,73.78
2022-07-30T17:32:59.683Z,73.72
2022-07-30T17:35:29.006Z,74.65
2022-07-30T17:37:57.978Z,79.47
2022-07-30T17:40:31.677Z,81.49
2022-07-30T17:43:04.888Z,83.17
2022-07-30T17:45:35.806Z,85.40
2022-07-30T17:48:05.176Z,88.25
2022-07-30T17:50:35.642Z,89.11
2022-07-30T17:53:05.794Z,92.21
2022-07-30T17:55:35.766Z,91.40
2022-07-30T17:58:07.828Z,89.64
2022-07-30T18:00:36.781Z,97.95
2022-07-30T18:03:05.988Z,99.08
2022-07-30T18:05:35.299Z,98.29
2022-07-30T18:08:04.805Z,97.50
2022-07-30T18:10:33.918Z,99.78
2022-07-30T18:13:25.662Z,100.00
2022-07-30T18:15:54.193Z,100.00
2022-07-30T18:18:23.111Z,100.00
2022-07-30T18:20:52.898Z,100.00
2022-07-30T18:23:22.765Z,100.00
2022-07-30T18:25:54.400Z,100.00
2022-07-30T18:28:25.009Z,100.00
2022-07-30T18:30:56.154Z,100.00
2022-07-30T18:33:26.013Z,100.00
2022-07-30T18:35:54.784Z,100.00
2022-07-30T18:38:23.762Z,100.00
2022-07-30T18:40:58.735Z,100.00
2022-07-30T18:43:28.532Z,100.00
2022-07-30T18:46:00.335Z,100.00
2022-07-30T18:48:29.808Z,100.00
2022-07-30T18:51:01.908Z,100.00
2022-07-30T18:53:31.152Z,100.00
2022-07-30T18:56:00.391Z,100.00
2022-07-30T18:58:29.516Z,100.00
2022-07-30T19:00:59.904Z,100.00
2022-07-30T19:03:28.733Z,100.00
2022-07-30T19:05:57.855Z,100.00
2022-07-30T19:08:28.174Z,100.00
2022-07-30T19:10:57.376Z,100.00
2022-07-30T19:13:26.556Z,100.00
2022-07-30T19:15:55.931Z,100.00
2022-07-30T19:18:26.915Z,100.00
2022-07-30T19:20:56.201Z,100.00
2022-07-30T19:23:25.320Z,100.00
2022-07-30T19:25:55.013Z,100.00
2022-07-30T19:28:25.893Z,100.00
2022-07-30T19:30:55.443Z,100.00
2022-07-30T19:33:26.298Z,100.00
2022-07-30T19:35:55.348Z,100.00
2022-07-30T19:38:24.901Z,100.00
2022-07-30T19:40:53.970Z,100.00
2022-07-30T19:46:12.241Z,100.00
2022-07-30T19:48:44.225Z,100.00
2022-07-30T19:51:20.371Z,100.00
2022-07-30T19:53:50.113Z,100.00
2022-07-30T19:56:19.669Z,100.00
2022-07-30T19:58:48.617Z,100.00
2022-07-30T20:01:18.735Z,100.00
2022-07-30T20:03:53.263Z,100.00
2022-07-30T20:06:22.224Z,100.00
2022-07-30T20:08:52.463Z,100.00
2022-07-30T20:11:35.942Z,100.00
2022-07-30T20:14:05.675Z,100.00
2022-07-30T20:16:35.644Z,100.00
2022-07-30T20:19:06.520Z,100.00
2022-07-30T20:21:56.871Z,100.00
2022-07-30T20:24:26.579Z,100.00
2022-07-30T20:26:55.777Z,100.00
2022-07-30T20:29:24.665Z,100.00
2022-07-30T20:31:53.748Z,100.00
2022-07-30T20:34:25.972Z,100.00
2022-07-30T20:36:56.467Z,100.00
2022-07-30T20:39:26.020Z,100.00
2022-07-30T20:42:08.020Z,100.00
2022-07-30T20:44:38.237Z,100.00
2022-07-30T20:47:08.369Z,100.00
2022-07-30T20:49:40.400Z,100.00
2022-07-30T20:52:10.745Z,100.00
2022-07-30T20:54:45.037Z,100.00
2022-07-30T20:57:15.774Z,100.00
2022-07-30T20:59:44.854Z,100.00
2022-07-30T21:02:15.207Z,100.00
2022-07-30T21:04:47.629Z,100.00
2022-07-30T21:07:20.490Z,100.00
2022-07-30T21:12:38.717Z,100.00
2022-07-30T21:15:23.074Z,100.00
2022-07-30T21:17:53.205Z,100.00
2022-07-30T21:20:27.546Z,100.00
2022-07-30T21:22:57.341Z,100.00
2022-07-30T21:25:33.039Z,100.00
2022-07-30T21:28:03.265Z,100.00
2022-07-30T21:30:34.233Z,100.00
2022-07-30T21:33:03.032Z,100.00
2022-07-30T21:35:34.202Z,100.00
2022-07-30T21:38:03.150Z,100.00
2022-07-30T21:40:32.198Z,100.00
2022-07-30T21:43:01.510Z,100.00
2022-07-30T21:45:39.498Z,100.00
2022-07-30T21:48:10.864Z,100.00
2022-07-30T21:50:41.941Z,100.00
2022-07-30T21:53:12.087Z,100.00
2022-07-30T21:55:52.793Z,100.00
2022-07-30T21:58:25.679Z,100.00
2022-07-30T22:01:16.249Z,100.00
2022-07-30T22:06:39.832Z,100.00
2022-07-30T22:09:18.974Z,100.00
2022-07-30T22:12:01.138Z,100.00
2022-07-30T22:14:31.499Z,100.00
2022-07-30T22:17:00.591Z,100.00
2022-07-30T22:19:34.103Z,100.00
2022-07-30T22:22:25.930Z,100.00
2022-07-30T22:24:53.280Z,100.00
2022-07-30T22:27:22.120Z,100.00
2022-07-30T22:29:51.018Z,100.00
2022-07-30T22:32:25.228Z,100.00
2022-07-30T22:34:55.163Z,100.00
2022-07-30T22:37:31.357Z,100.00
2022-07-30T22:40:03.580Z,100.00
2022-07-30T22:42:36.580Z,100.00
2022-07-30T22:45:34.043Z,100.00
2022-07-30T22:48:10.075Z,100.00
2022-07-30T22:50:40.872Z,100.00
2022-07-30T22:54:02.489Z,100.00
2022-07-30T22:56:00.376Z,100.00
2022-07-30T22:58:29.916Z,100.00
2022-07-30T23:00:58.878Z,100.00
2022-07-30T23:03:27.704Z,100.00
2022-07-30T23:05:57.255Z,100.00
2022-07-30T23:08:30.022Z,100.00
2022-07-30T23:10:59.734Z,100.00
2022-07-30T23:12:14.919Z,100.00
2022-07-30T23:12:26.824Z,100.00
2022-07-30T23:12:33.052Z,100.00
2022-07-30T23:13:31.109Z,100.00
2022-07-30T23:15:59.854Z,100.00
2022-07-30T23:18:28.979Z,100.00
2022-07-30T23:21:00.417Z,100.00
2022-07-30T23:23:33.814Z,100.00
2022-07-30T23:26:03.167Z,100.00
2022-07-30T23:28:32.166Z,100.00
2022-07-30T23:31:01.081Z,100.00
2022-07-30T23:33:30.617Z,100.00
2022-07-30T23:36:00.398Z,100.00
2022-07-30T23:38:30.809Z,100.00
2022-07-30T23:41:01.976Z,100.00
2022-07-30T23:43:31.035Z,100.00
2022-07-30T23:45:59.939Z,100.00
2022-07-30T23:48:29.429Z,100.00
2022-07-30T23:50:58.359Z,100.00
2022-07-30T23:53:27.096Z,100.00
2022-07-30T23:55:58.019Z,100.00
2022-07-30T23:58:26.834Z,100.00
